createdAt,value
2018-09-26T00:01:08.735Z,102054.71
2018-09-26T00:03:41.401Z,102047.81
2018-09-26T00:06:09.077Z,102044.02
2018-09-26T00:08:36.816Z,102041.22
2018-09-26T00:11:04.414Z,102049.91
2018-09-26T00:13:32.255Z,102048.25
2018-09-26T00:15:59.977Z,102040.92
2018-09-26T00:18:27.639Z,102039.47
2018-09-26T00:20:55.265Z,102034.73
2018-09-26T00:23:22.841Z,102029.13
2018-09-26T00:25:50.849Z,102029.66
2018-09-26T00:28:18.457Z,102036.59
2018-09-26T00:30:47.027Z,102038.96
2018-09-26T00:33:15.131Z,102050.54
2018-09-26T00:35:42.773Z,102052.88
2018-09-26T00:38:10.918Z,102052.97
2018-09-26T00:40:38.599Z,102050.24
2018-09-26T00:43:06.225Z,102045.86
2018-09-26T00:45:33.901Z,102045.45
2018-09-26T00:48:01.633Z,102040.36
2018-09-26T00:50:29.276Z,102040.55
2018-09-26T00:52:56.991Z,102019.09
2018-09-26T00:55:24.662Z,102030.00
2018-09-26T00:57:52.644Z,102042.36
2018-09-26T01:00:20.275Z,102037.67
2018-09-26T01:02:47.894Z,102020.86
2018-09-26T01:05:15.538Z,102033.11
2018-09-26T01:07:43.142Z,102031.86
2018-09-26T01:10:11.345Z,102042.44
2018-09-26T01:12:39.037Z,102042.55
2018-09-26T01:15:06.730Z,102041.94
2018-09-26T01:17:34.334Z,102032.54
2018-09-26T01:20:02.014Z,102035.58
2018-09-26T01:22:30.029Z,102040.45
2018-09-26T01:24:57.693Z,102045.27
2018-09-26T01:27:25.382Z,102042.33
2018-09-26T01:29:52.960Z,102045.22
2018-09-26T01:32:20.573Z,102052.61
2018-09-26T01:34:48.198Z,102053.52
2018-09-26T01:37:16.292Z,102053.59
2018-09-26T01:39:43.944Z,102047.32
2018-09-26T01:42:12.009Z,102053.20
2018-09-26T01:44:39.652Z,102051.27
2018-09-26T01:47:07.289Z,102053.13
2018-09-26T01:49:34.994Z,102056.69
2018-09-26T01:52:02.669Z,102050.19
2018-09-26T01:54:30.332Z,102044.88
2018-09-26T01:56:58.224Z,102041.08
2018-09-26T01:59:26.221Z,102036.66
2018-09-26T02:01:53.838Z,102035.36
2018-09-26T02:04:21.461Z,102021.37
2018-09-26T02:06:49.122Z,102015.75
2018-09-26T02:09:16.731Z,102016.98
2018-09-26T02:11:44.357Z,101993.97
2018-09-26T02:14:12.299Z,102008.36
2018-09-26T02:16:39.945Z,102004.61
2018-09-26T02:19:07.565Z,101996.00
2018-09-26T02:21:35.555Z,101990.95
2018-09-26T02:24:03.209Z,101959.64
2018-09-26T02:26:31.117Z,101989.08
2018-09-26T02:28:58.780Z,101968.38
2018-09-26T02:31:26.435Z,101968.95
2018-09-26T02:33:54.067Z,101970.34
2018-09-26T02:36:21.878Z,101966.77
2018-09-26T02:38:49.644Z,101961.38
2018-09-26T02:41:17.384Z,101956.96
2018-09-26T02:43:45.451Z,101966.09
2018-09-26T02:46:13.027Z,101960.00
2018-09-26T02:48:46.591Z,101957.45
2018-09-26T02:51:14.231Z,101968.92
2018-09-26T02:53:41.951Z,101965.46
2018-09-26T02:56:09.690Z,101968.64
2018-09-26T02:58:37.346Z,101965.27
2018-09-26T03:01:04.976Z,101968.74
2018-09-26T03:03:32.631Z,101974.04
2018-09-26T03:06:00.391Z,101967.34
2018-09-26T03:08:28.043Z,101967.34
2018-09-26T03:10:55.837Z,101958.95
2018-09-26T03:13:23.412Z,101952.57
2018-09-26T03:15:51.347Z,101956.45
2018-09-26T03:18:18.981Z,101953.53
2018-09-26T03:20:47.171Z,101953.19
2018-09-26T03:23:14.745Z,101948.89
2018-09-26T03:25:42.371Z,101955.78
2018-09-26T03:28:10.124Z,101951.95
2018-09-26T03:30:37.721Z,101944.13
2018-09-26T03:33:05.516Z,101947.47
2018-09-26T03:35:33.101Z,101945.93
2018-09-26T03:38:00.690Z,101927.39
2018-09-26T03:40:28.358Z,101936.95
2018-09-26T03:42:56.045Z,101927.85
2018-09-26T03:45:23.708Z,101925.33
2018-09-26T03:47:51.797Z,101923.95
2018-09-26T03:50:19.453Z,101915.80
2018-09-26T03:52:47.425Z,101919.88
2018-09-26T03:55:15.057Z,101922.45
2018-09-26T03:57:42.673Z,101925.50
2018-09-26T04:00:10.593Z,101932.25
2018-09-26T04:02:38.391Z,101929.21
2018-09-26T04:05:06.240Z,101929.27
2018-09-26T04:07:33.881Z,101927.16
2018-09-26T04:10:01.577Z,101937.98
2018-09-26T04:12:29.783Z,101939.03
2018-09-26T04:14:57.420Z,101931.73
2018-09-26T04:17:25.173Z,101924.00
2018-09-26T04:19:52.917Z,101920.14
2018-09-26T04:22:20.509Z,101917.19
2018-09-26T04:24:48.363Z,101915.98
2018-09-26T04:27:16.063Z,101924.89
2018-09-26T04:29:43.668Z,101929.74
2018-09-26T04:32:11.353Z,101930.37
2018-09-26T04:34:39.078Z,101928.27
2018-09-26T04:37:06.716Z,101934.30
2018-09-26T04:39:34.678Z,101934.31
2018-09-26T04:42:02.393Z,101936.32
2018-09-26T04:44:30.196Z,101925.46
2018-09-26T04:46:57.918Z,101927.16
2018-09-26T04:49:25.528Z,101923.19
2018-09-26T04:51:53.220Z,101919.25
2018-09-26T04:54:20.940Z,101920.66
2018-09-26T04:56:48.650Z,101917.23
2018-09-26T04:59:16.474Z,101917.28
2018-09-26T05:01:44.089Z,101920.02
2018-09-26T05:04:11.849Z,101929.10
2018-09-26T05:06:39.461Z,101918.64
2018-09-26T05:09:09.412Z,101923.78
2018-09-26T05:11:37.132Z,101916.33
2018-09-26T05:14:05.079Z,101911.59
2018-09-26T05:16:32.862Z,101905.53
2018-09-26T05:19:00.604Z,101902.41
2018-09-26T05:21:28.788Z,101897.52
2018-09-26T05:23:56.495Z,101891.31
2018-09-26T05:26:24.270Z,101888.39
2018-09-26T05:28:51.994Z,101881.95
2018-09-26T05:31:19.606Z,101881.14
2018-09-26T05:33:47.358Z,101879.27
2018-09-26T05:36:15.002Z,101882.02
2018-09-26T05:38:42.691Z,101894.42
2018-09-26T05:41:10.584Z,101898.73
2018-09-26T05:43:38.266Z,101908.09
2018-09-26T05:46:05.931Z,101902.09
2018-09-26T05:48:34.091Z,101904.08
2018-09-26T05:51:01.868Z,101906.20
2018-09-26T05:53:29.740Z,101911.59
2018-09-26T05:55:57.403Z,101912.04
2018-09-26T05:58:25.075Z,101905.73
2018-09-26T06:00:53.449Z,101896.25
2018-09-26T06:03:21.273Z,101896.67
2018-09-26T06:05:49.415Z,101908.03
2018-09-26T06:08:17.133Z,101908.56
2018-09-26T06:10:44.898Z,101897.38
2018-09-26T06:13:12.639Z,101888.55
2018-09-26T06:15:41.888Z,101884.84
2018-09-26T06:18:09.557Z,101883.88
2018-09-26T06:20:37.329Z,101889.38
2018-09-26T06:23:05.201Z,101887.19
2018-09-26T06:25:32.873Z,101881.02
2018-09-26T06:28:00.607Z,101863.07
2018-09-26T06:30:28.248Z,101863.42
2018-09-26T06:32:55.859Z,101862.99
2018-09-26T06:35:23.535Z,101859.42
2018-09-26T06:37:51.126Z,101861.05
2018-09-26T06:40:18.725Z,101852.34
2018-09-26T06:42:46.587Z,101847.48
2018-09-26T06:45:15.250Z,101847.64
2018-09-26T06:47:42.846Z,101836.30
2018-09-26T06:50:16.502Z,101823.45
2018-09-26T06:52:44.191Z,101830.35
2018-09-26T06:55:11.777Z,101839.21
2018-09-26T06:57:39.409Z,101846.95
2018-09-26T07:00:07.761Z,101848.91
2018-09-26T07:02:35.408Z,101852.47
2018-09-26T07:05:03.079Z,101862.00
2018-09-26T07:07:30.875Z,101861.16
2018-09-26T07:09:58.511Z,101854.33
2018-09-26T07:12:26.134Z,101852.38
2018-09-26T07:14:53.773Z,101849.75
2018-09-26T07:17:21.467Z,101860.09
2018-09-26T07:19:49.217Z,101856.53
2018-09-26T07:22:16.883Z,101864.34
2018-09-26T07:24:44.521Z,101856.31
2018-09-26T07:27:12.217Z,101850.89
2018-09-26T07:29:39.953Z,101849.21
2018-09-26T07:32:07.667Z,101853.92
2018-09-26T07:34:38.154Z,101861.55
2018-09-26T07:37:06.111Z,101864.48
2018-09-26T07:39:34.315Z,101866.07
2018-09-26T07:42:01.979Z,101870.17
2018-09-26T07:44:29.773Z,101863.55
2018-09-26T07:46:57.397Z,101865.14
2018-09-26T07:49:25.619Z,101859.36
2018-09-26T07:51:53.242Z,101867.73
2018-09-26T07:54:20.897Z,101871.64
2018-09-26T07:56:48.879Z,101869.55
2018-09-26T07:59:16.609Z,101860.02
2018-09-26T08:01:44.569Z,101862.12
2018-09-26T08:04:12.322Z,101860.34
2018-09-26T08:06:39.987Z,101853.11
2018-09-26T08:09:08.585Z,101853.71
2018-09-26T08:11:36.329Z,101859.01
2018-09-26T08:14:04.335Z,101859.02
2018-09-26T08:16:42.294Z,101853.02
2018-09-26T08:19:10.056Z,101846.41
2018-09-26T08:21:37.601Z,101841.52
2018-09-26T08:24:05.307Z,101840.41
2018-09-26T08:26:32.858Z,101822.83
2018-09-26T08:29:00.459Z,101821.73
2018-09-26T08:31:28.527Z,101805.29
2018-09-26T08:33:56.194Z,101812.66
2018-09-26T08:36:23.792Z,101820.31
2018-09-26T08:38:51.429Z,101818.05
2018-09-26T08:41:19.080Z,101816.16
2018-09-26T08:43:46.763Z,101808.80
2018-09-26T08:46:14.427Z,101807.19
2018-09-26T08:48:42.055Z,101802.20
2018-09-26T08:51:09.633Z,101796.55
2018-09-26T08:53:37.293Z,101788.63
2018-09-26T08:56:04.820Z,101780.69
2018-09-26T08:58:32.374Z,101779.52
2018-09-26T09:00:59.946Z,101777.80
2018-09-26T09:03:27.498Z,101779.89
2018-09-26T09:05:55.055Z,101770.91
2018-09-26T09:08:22.704Z,101770.05
2018-09-26T09:10:50.266Z,101762.32
2018-09-26T09:13:17.854Z,101760.70
2018-09-26T09:15:45.457Z,101767.19
2018-09-26T09:18:13.038Z,101760.19
2018-09-26T09:20:40.592Z,101760.43
2018-09-26T09:23:08.244Z,101753.34
2018-09-26T09:25:35.793Z,101775.24
2018-09-26T09:28:03.618Z,101765.96
2018-09-26T09:30:31.244Z,101766.94
2018-09-26T09:32:58.841Z,101771.42
2018-09-26T09:35:26.626Z,101759.04
2018-09-26T09:37:54.236Z,101761.07
2018-09-26T09:40:21.857Z,101763.22
2018-09-26T09:42:49.434Z,101752.95
2018-09-26T09:45:17.163Z,101764.67
2018-09-26T09:47:44.792Z,101762.03
2018-09-26T09:50:12.469Z,101759.66
2018-09-26T09:52:40.057Z,101769.14
2018-09-26T09:55:07.728Z,101763.16
2018-09-26T09:57:35.397Z,101755.32
2018-09-26T10:00:03.182Z,101747.12
2018-09-26T10:02:30.829Z,101737.40
2018-09-26T10:04:58.425Z,101726.84
2018-09-26T10:07:26.137Z,101721.27
2018-09-26T10:09:53.745Z,101711.86
2018-09-26T10:12:21.369Z,101714.58
2018-09-26T10:14:49.064Z,101713.95
2018-09-26T10:17:16.668Z,101698.64
2018-09-26T10:19:44.349Z,101686.26
2018-09-26T10:22:12.006Z,101693.66
2018-09-26T10:24:39.778Z,101687.69
2018-09-26T10:27:07.450Z,101684.09
2018-09-26T10:29:35.147Z,101679.98
2018-09-26T10:32:02.849Z,101677.91
2018-09-26T10:34:30.680Z,101675.29
2018-09-26T10:36:58.356Z,101679.64
2018-09-26T10:39:26.002Z,101683.02
2018-09-26T10:41:53.622Z,101670.16
2018-09-26T10:44:21.340Z,101667.20
2018-09-26T10:46:48.928Z,101661.91
2018-09-26T10:49:16.530Z,101675.34
2018-09-26T10:51:44.178Z,101668.50
2018-09-26T10:54:11.756Z,101670.60
2018-09-26T10:56:39.443Z,101669.02
2018-09-26T10:59:07.156Z,101658.59
2018-09-26T11:01:34.816Z,101666.80
2018-09-26T11:04:02.496Z,101657.13
2018-09-26T11:06:30.139Z,101654.02
2018-09-26T11:08:57.717Z,101640.27
2018-09-26T11:11:25.452Z,101633.17
2018-09-26T11:13:53.107Z,101643.95
2018-09-26T11:16:20.744Z,101643.49
2018-09-26T11:18:48.460Z,101627.33
2018-09-26T11:21:16.145Z,101629.93
2018-09-26T11:23:43.687Z,101637.47
2018-09-26T11:26:11.437Z,101626.91
2018-09-26T11:28:39.041Z,101619.01
2018-09-26T11:31:06.708Z,101627.11
2018-09-26T11:33:34.379Z,101630.03
2018-09-26T11:36:02.003Z,101609.80
2018-09-26T11:38:29.668Z,101610.06
2018-09-26T11:40:57.311Z,101611.42
2018-09-26T11:43:24.931Z,101608.58
2018-09-26T11:45:52.572Z,101611.17
2018-09-26T11:48:20.170Z,101609.47
2018-09-26T11:50:47.794Z,101615.55
2018-09-26T11:53:15.384Z,101598.83
2018-09-26T11:55:43.126Z,101586.81
2018-09-26T11:58:10.802Z,101573.02
2018-09-26T12:00:38.494Z,101572.31
2018-09-26T12:03:06.637Z,101570.97
2018-09-26T12:05:34.330Z,101574.96
2018-09-26T12:08:02.077Z,101574.61
2018-09-26T12:10:29.772Z,101574.78
2018-09-26T12:13:04.215Z,101563.35
2018-09-26T12:15:32.049Z,101568.94
2018-09-26T12:17:59.769Z,101562.25
2018-09-26T12:20:28.991Z,101563.13
2018-09-26T12:22:57.979Z,101556.50
2018-09-26T12:25:25.688Z,101551.27
2018-09-26T12:27:53.398Z,101544.36
2018-09-26T12:30:21.048Z,101541.33
2018-09-26T12:32:48.643Z,101543.97
2018-09-26T12:35:16.250Z,101533.31
2018-09-26T12:37:43.894Z,101516.55
2018-09-26T12:40:11.567Z,101510.66
2018-09-26T12:42:39.323Z,101504.20
2018-09-26T12:45:07.232Z,101501.53
2018-09-26T12:47:34.832Z,101494.64
2018-09-26T12:50:02.671Z,101497.53
2018-09-26T12:52:30.352Z,101490.41
2018-09-26T12:54:58.110Z,101428.66
2018-09-26T12:57:25.806Z,101489.59
2018-09-26T12:59:53.466Z,101490.39
2018-09-26T13:02:21.269Z,101491.13
2018-09-26T13:04:48.898Z,101487.64
2018-09-26T13:07:16.660Z,101487.94
2018-09-26T13:09:44.420Z,101482.77
2018-09-26T13:12:12.239Z,101478.70
2018-09-26T13:14:39.849Z,101466.23
2018-09-26T13:17:07.545Z,101463.08
2018-09-26T13:19:35.210Z,101454.94
2018-09-26T13:22:03.121Z,101462.80
2018-09-26T13:24:30.790Z,101451.75
2018-09-26T13:26:58.531Z,101451.92
2018-09-26T13:29:26.211Z,101455.42
2018-09-26T13:31:53.909Z,101450.36
2018-09-26T13:34:21.581Z,101448.36
2018-09-26T13:36:49.164Z,101442.75
2018-09-26T13:39:16.792Z,101446.56
2018-09-26T13:41:44.405Z,101438.88
2018-09-26T13:44:12.020Z,101429.94
2018-09-26T13:46:39.888Z,101434.73
2018-09-26T13:49:07.453Z,101431.94
2018-09-26T13:51:35.017Z,101418.28
2018-09-26T13:54:02.682Z,101419.97
2018-09-26T13:56:30.343Z,101412.82
2018-09-26T13:58:57.997Z,101409.63
2018-09-26T14:01:25.800Z,101406.69
2018-09-26T14:03:53.589Z,101405.60
2018-09-26T14:06:21.387Z,101403.83
2018-09-26T14:08:49.049Z,101394.90
2018-09-26T14:11:16.718Z,101396.88
2018-09-26T14:13:44.408Z,101397.28
2018-09-26T14:16:12.138Z,101393.98
2018-09-26T14:18:39.844Z,101395.31
2018-09-26T14:21:07.531Z,101392.75
2018-09-26T14:23:35.228Z,101387.72
2018-09-26T14:26:02.868Z,101379.29
2018-09-26T14:28:30.551Z,101384.44
2018-09-26T14:30:58.191Z,101366.92
2018-09-26T14:33:25.887Z,101363.41
2018-09-26T14:35:53.634Z,101347.53
2018-09-26T14:38:21.476Z,101348.22
2018-09-26T14:40:49.148Z,101342.53
2018-09-26T14:43:16.845Z,101335.74
2018-09-26T14:45:44.700Z,101335.03
2018-09-26T14:48:12.253Z,101330.63
2018-09-26T14:50:39.974Z,101326.17
2018-09-26T14:53:07.742Z,101315.20
2018-09-26T14:55:35.605Z,101323.30
2018-09-26T14:58:03.344Z,101327.71
2018-09-26T15:00:31.213Z,101313.09
2018-09-26T15:02:58.929Z,101311.32
2018-09-26T15:05:26.732Z,101312.92
2018-09-26T15:07:54.408Z,101309.64
2018-09-26T15:10:22.192Z,101311.97
2018-09-26T15:12:49.911Z,101310.54
2018-09-26T15:15:17.648Z,101306.02
2018-09-26T15:17:45.351Z,101311.31
2018-09-26T15:20:13.090Z,101304.52
2018-09-26T15:22:40.804Z,101302.57
2018-09-26T15:25:08.510Z,101301.81
2018-09-26T15:27:36.229Z,101301.34
2018-09-26T15:30:04.164Z,101304.39
2018-09-26T15:32:31.877Z,101301.58
2018-09-26T15:34:59.667Z,101309.17
2018-09-26T15:37:27.483Z,101310.02
2018-09-26T15:39:55.268Z,101310.97
2018-09-26T15:42:23.017Z,101307.73
2018-09-26T15:44:50.776Z,101306.78
2018-09-26T15:47:18.531Z,101310.60
2018-09-26T15:49:46.177Z,101312.05
2018-09-26T15:52:14.045Z,101304.86
2018-09-26T15:54:42.961Z,101308.84
2018-09-26T15:57:10.847Z,101300.94
2018-09-26T15:59:38.581Z,101314.36
2018-09-26T16:02:06.374Z,101303.59
2018-09-26T16:04:34.359Z,101315.33
2018-09-26T16:07:02.354Z,101309.56
2018-09-26T16:09:30.143Z,101315.92
2018-09-26T16:11:57.814Z,101327.06
2018-09-26T16:14:25.586Z,101317.34
2018-09-26T16:16:53.276Z,101314.74
2018-09-26T16:19:24.304Z,101302.00
2018-09-26T16:21:52.036Z,101308.28
2018-09-26T16:24:19.999Z,101294.89
2018-09-26T16:26:48.100Z,101297.23
2018-09-26T16:29:16.142Z,101296.27
2018-09-26T16:31:44.038Z,101296.28
2018-09-26T16:34:11.942Z,101299.08
2018-09-26T16:36:39.684Z,101300.79
2018-09-26T16:39:11.058Z,101301.36
2018-09-26T16:41:38.976Z,101298.70
2018-09-26T16:44:07.984Z,101301.56
2018-09-26T16:46:36.043Z,101301.11
2018-09-26T16:49:03.983Z,101301.89
2018-09-26T16:51:32.212Z,101297.39
2018-09-26T16:54:00.335Z,101294.18
2018-09-26T16:56:28.389Z,101292.13
2018-09-26T16:58:56.383Z,101296.90
2018-09-26T17:01:24.439Z,101298.69
2018-09-26T17:03:52.347Z,101292.42
2018-09-26T17:06:20.345Z,101276.39
2018-09-26T17:08:48.002Z,101278.98
2018-09-26T17:11:26.086Z,101277.37
2018-09-26T17:13:53.818Z,101270.72
2018-09-26T17:16:21.651Z,101276.90
2018-09-26T17:18:49.241Z,101261.50
2018-09-26T17:21:17.087Z,101261.92
2018-09-26T17:23:44.792Z,101265.09
2018-09-26T17:26:12.574Z,101278.13
2018-09-26T17:28:40.353Z,101278.91
2018-09-26T17:31:08.171Z,101280.50
2018-09-26T17:33:36.209Z,101282.64
2018-09-26T17:36:04.083Z,101281.28
2018-09-26T17:38:31.868Z,101284.64
2018-09-26T17:40:59.679Z,101292.11
2018-09-26T17:43:27.615Z,101289.91
2018-09-26T17:45:55.525Z,101288.12
2018-09-26T17:48:23.528Z,101288.55
2018-09-26T17:50:51.173Z,101286.99
2018-09-26T17:53:19.185Z,101289.00
2018-09-26T17:55:47.093Z,101281.94
2018-09-26T17:58:14.776Z,101290.41
2018-09-26T18:00:42.609Z,101295.36
2018-09-26T18:03:10.414Z,101291.39
2018-09-26T18:05:38.103Z,101281.83
2018-09-26T18:08:05.837Z,101294.43
2018-09-26T18:10:36.967Z,101292.20
2018-09-26T18:13:04.926Z,101291.39
2018-09-26T18:15:32.795Z,101298.92
2018-09-26T18:18:00.697Z,101298.91
2018-09-26T18:20:28.549Z,101293.38
2018-09-26T18:22:56.915Z,101292.28
2018-09-26T18:25:24.778Z,101283.86
2018-09-26T18:27:52.804Z,101290.45
2018-09-26T18:30:21.247Z,101293.88
2018-09-26T18:32:49.216Z,101291.03
2018-09-26T18:35:17.237Z,101291.81
2018-09-26T18:37:45.382Z,101281.75
2018-09-26T18:40:14.700Z,101285.92
2018-09-26T18:42:42.793Z,101280.92
2018-09-26T18:45:10.873Z,101275.02
2018-09-26T18:47:38.790Z,101281.23
2018-09-26T18:50:06.806Z,101280.97
2018-09-26T18:52:36.766Z,101283.22
2018-09-26T18:55:05.088Z,101290.17
2018-09-26T18:57:33.146Z,101287.55
2018-09-26T19:00:01.100Z,101283.23
2018-09-26T19:02:29.458Z,101287.73
2018-09-26T19:05:03.417Z,101277.80
2018-09-26T19:07:31.199Z,101280.22
2018-09-26T19:12:33.616Z,101280.98
2018-09-26T19:15:01.707Z,101275.08
2018-09-26T19:17:29.512Z,101275.55
2018-09-26T19:19:57.284Z,101273.00
2018-09-26T19:22:25.184Z,101274.31
2018-09-26T19:24:53.143Z,101280.22
2018-09-26T19:27:21.064Z,101286.71
2018-09-26T19:29:54.786Z,101286.70
2018-09-26T19:32:23.203Z,101287.97
2018-09-26T19:34:51.373Z,101293.77
2018-09-26T19:37:19.162Z,101290.67
2018-09-26T19:39:47.123Z,101288.34
2018-09-26T19:42:23.254Z,101284.70
2018-09-26T19:44:51.213Z,101284.91
2018-09-26T19:47:18.959Z,101292.43
2018-09-26T19:49:46.950Z,101293.16
2018-09-26T19:52:14.933Z,101288.10
2018-09-26T19:54:42.726Z,101292.52
2018-09-26T19:57:10.648Z,101298.55
2018-09-26T19:59:42.623Z,101293.59
2018-09-26T20:02:10.573Z,101298.09
2018-09-26T20:04:38.349Z,101292.53
2018-09-26T20:07:06.280Z,101295.71
2018-09-26T20:09:37.235Z,101295.45
2018-09-26T20:12:05.107Z,101301.02
2018-09-26T20:14:32.984Z,101297.83
2018-09-26T20:17:00.787Z,101299.70
2018-09-26T20:19:28.542Z,101301.55
2018-09-26T20:21:56.322Z,101303.03
2018-09-26T20:24:24.066Z,101298.89
2018-09-26T20:26:51.866Z,101296.62
2018-09-26T20:29:19.590Z,101297.84
2018-09-26T20:31:47.216Z,101293.86
2018-09-26T20:36:49.333Z,101288.86
2018-09-26T20:39:17.114Z,101276.17
2018-09-26T20:41:44.937Z,101287.93
2018-09-26T20:44:12.658Z,101285.47
2018-09-26T20:46:40.394Z,101287.05
2018-09-26T20:49:08.013Z,101287.72
2018-09-26T20:51:35.760Z,101293.82
2018-09-26T20:54:03.506Z,101300.61
2018-09-26T20:56:31.313Z,101300.35
2018-09-26T20:58:59.002Z,101305.08
2018-09-26T21:01:26.738Z,101304.60
2018-09-26T21:03:54.469Z,101299.19
2018-09-26T21:06:22.176Z,101299.39
2018-09-26T21:08:49.966Z,101306.73
2018-09-26T21:11:17.616Z,101303.27
2018-09-26T21:13:45.323Z,101301.57
2018-09-26T21:16:13.095Z,101302.80
2018-09-26T21:18:40.896Z,101309.55
2018-09-26T21:21:08.712Z,101302.76
2018-09-26T21:23:36.396Z,101305.85
2018-09-26T21:26:04.206Z,101298.50
2018-09-26T21:28:32.252Z,101309.38
2018-09-26T21:30:59.898Z,101305.73
2018-09-26T21:33:27.606Z,101299.13
2018-09-26T21:35:55.380Z,101299.01
2018-09-26T21:38:23.065Z,101293.67
2018-09-26T21:40:50.914Z,101291.55
2018-09-26T21:43:18.666Z,101301.63
2018-09-26T21:45:46.397Z,101304.48
2018-09-26T21:48:14.094Z,101307.67
2018-09-26T21:50:42.633Z,101296.65
2018-09-26T21:53:10.401Z,101298.98
2018-09-26T21:55:38.129Z,101302.00
2018-09-26T21:58:05.785Z,101306.33
2018-09-26T22:00:33.434Z,101303.30
2018-09-26T22:03:01.054Z,101295.14
2018-09-26T22:05:28.698Z,101298.97
2018-09-26T22:07:56.544Z,101308.17
2018-09-26T22:10:24.242Z,101307.38
2018-09-26T22:12:52.479Z,101302.04
2018-09-26T22:15:23.434Z,101303.28
2018-09-26T22:17:52.899Z,101307.05
2018-09-26T22:20:20.617Z,101297.02
2018-09-26T22:22:48.910Z,101296.14
2018-09-26T22:25:16.687Z,101300.52
2018-09-26T22:27:44.706Z,101304.52
2018-09-26T22:30:12.563Z,101294.09
2018-09-26T22:32:40.239Z,101293.98
2018-09-26T22:35:07.899Z,101290.28
2018-09-26T22:37:35.946Z,101289.82
2018-09-26T22:40:03.582Z,101277.72
2018-09-26T22:42:31.753Z,101283.14
2018-09-26T22:44:59.535Z,101277.14
2018-09-26T22:47:27.200Z,101275.55
2018-09-26T22:49:55.174Z,101269.08
2018-09-26T22:52:22.970Z,101271.73
2018-09-26T22:54:50.828Z,101268.84
2018-09-26T22:57:18.424Z,101276.44
2018-09-26T22:59:46.134Z,101274.27
2018-09-26T23:02:13.780Z,101277.05
2018-09-26T23:04:41.525Z,101284.25
2018-09-26T23:07:09.245Z,101275.23
2018-09-26T23:09:36.916Z,101268.00
2018-09-26T23:12:04.790Z,101273.54
2018-09-26T23:14:32.510Z,101268.82
2018-09-26T23:17:00.280Z,101256.03
2018-09-26T23:19:27.960Z,101260.19
2018-09-26T23:21:55.678Z,101262.21
2018-09-26T23:24:23.301Z,101261.84
2018-09-26T23:26:51.058Z,101257.88
2018-09-26T23:29:18.754Z,101253.95
2018-09-26T23:31:46.501Z,101257.07
2018-09-26T23:34:14.267Z,101256.55
2018-09-26T23:36:41.905Z,101251.36
2018-09-26T23:39:10.553Z,101257.72
2018-09-26T23:41:38.661Z,101253.46
2018-09-26T23:44:06.830Z,101251.65
2018-09-26T23:46:34.519Z,101254.93
2018-09-26T23:49:02.148Z,101242.58
2018-09-26T23:51:29.982Z,101244.83
2018-09-26T23:53:58.218Z,101250.09
2018-09-26T23:56:25.944Z,101248.80
2018-09-26T23:58:53.544Z,101249.92
